Davenport, IA

7:56 AM CDT on June 28, 2017 (GMT -0500)
MRDVI4 | | Change Station
Active Advisory: Special Statement

Elev 675 ft 41.60 °N, 90.68 °W | Updated 42 days ago

Rain
Rain
78.0 °F
Feels Like 79 °F
N
-
Wind Variable Wind from North

Today
High -- | Low -- °F
--% Chance of Precip.
Yesterday
High -- | Low -- °F
Precip. -- in
Pressure 29.93 in
Visibility 3.0 miles
Clouds Few 1200 ft
Overcast 3900 ft
Heat Index 79 °F
Dew Point 56 °F
Humidity 46%
Rainfall 0.42 in
Snow Depth Not available.
5:31 AM 8:40 PM
Waxing Crescent, 25% visible
METAR KMLI 281252Z 00000KT 3SM R09/5500VP6000FT TSRA BR FEW012 OVC039 18/16 A2993 RMK AO2 LTG DSNT ALQDS RAB1159 TSB13 SLP133 P0085 T01780161
Pressure 29.93 in
Visibility 3.0 miles
Clouds Few 1200 ft
Overcast 3900 ft
Heat Index 79 °F
Dew Point 56 °F
Humidity 46%
Rainfall 0.42 in
Snow Depth Not available.
5:31 AM 8:40 PM
Waxing Crescent, 25% visible
METAR KMLI 281252Z 00000KT 3SM R09/5500VP6000FT TSRA BR FEW012 OVC039 18/16 A2993 RMK AO2 LTG DSNT ALQDS RAB1159 TSB13 SLP133 P0085 T01780161

Get Your Daily Forecast Email!

Thanks for signing up!

Be on the lookout for a verification email in your inbox.

You'll start receiving severe weather alerts in your inbox..

×

10-Day Weather Forecast

Almanac

Astronomy

Jun. 28, 2017 Rise Set
Actual Time
Civil Twilight
Nautical Twilight
Astronomical Twilight
Moon
Length of Visible Light
Length of Day
Tomorrow will be .
, % of the Moon is Illuminated

Today's Extremes

State Highs State Lows

Community

WunderPhotos

Category 6

Welcome to Category 6. This is the collective home for Weather Underground's featured writeups by Dr. Jeff Masters (right), Bob Henson (left), Chris Burt, and other regular contributors.

Nearby

Air Quality

  Air Quality AQ Index Pollutant
Not available.

Snow Depth

Station Depth Elevation

Earthquake Activity

City Distance Mag. Time & Date
Minimum magnitude displayed is 2.5.

Coastal Water Temperatures

Place Temperature

Stations

Nearby Weather Stations

Station Location Temp. Windchill Dew Point Humidity Wind Precip. Elev Updated Type
                   

Watches & Warnings

Special Statement
Issued: 7:16 AM CDT Jun. 28, 2017 – National Weather Service

... Thunderstorms with considerable lightning...

Strong thunderstorms will move across the area through mid
morning. These storms will produce considerable lightning,
periods of heavy rain and possibly small hail.

When thunderstorms are occurring, move indoors. Do not stand by
windows. Avoid using telephones and electrical appliances until
the storm has passed.